sensor_id;sensor_type;location;lat;lon;timestamp;P1;durP1;ratioP1;P2;durP2;ratioP2
4434;SDS011;46552;52.150;8.428;2022-11-06T00:00:05;13.03;;;7.70;;
4434;SDS011;46552;52.150;8.428;2022-11-06T00:02:33;13.60;;;6.77;;
4434;SDS011;46552;52.150;8.428;2022-11-06T00:05:00;12.80;;;6.97;;
4434;SDS011;46552;52.150;8.428;2022-11-06T00:07:46;24.70;;;8.57;;
4434;SDS011;46552;52.150;8.428;2022-11-06T00:10:14;16.30;;;6.83;;
4434;SDS011;46552;52.150;8.428;2022-11-06T00:12:41;15.73;;;7.60;;
4434;SDS011;46552;52.150;8.428;2022-11-06T00:15:09;25.20;;;6.63;;
4434;SDS011;46552;52.150;8.428;2022-11-06T00:17:37;12.53;;;6.97;;
4434;SDS011;46552;52.150;8.428;2022-11-06T00:20:04;12.70;;;8.53;;
4434;SDS011;46552;52.150;8.428;2022-11-06T00:22:33;16.43;;;7.70;;
4434;SDS011;46552;52.150;8.428;2022-11-06T00:25:03;17.80;;;7.70;;
4434;SDS011;46552;52.150;8.428;2022-11-06T00:27:34;20.57;;;7.20;;
4434;SDS011;46552;52.150;8.428;2022-11-06T00:30:01;14.67;;;7.50;;
4434;SDS011;46552;52.150;8.428;2022-11-06T00:32:28;10.30;;;6.33;;
4434;SDS011;46552;52.150;8.428;2022-11-06T00:34:56;15.20;;;9.13;;
4434;SDS011;46552;52.150;8.428;2022-11-06T00:37:23;14.77;;;7.53;;
4434;SDS011;46552;52.150;8.428;2022-11-06T00:39:50;14.40;;;8.10;;
4434;SDS011;46552;52.150;8.428;2022-11-06T00:42:20;16.53;;;8.20;;
4434;SDS011;46552;52.150;8.428;2022-11-06T00:44:47;12.27;;;7.00;;
4434;SDS011;46552;52.150;8.428;2022-11-06T00:47:14;20.27;;;7.60;;
4434;SDS011;46552;52.150;8.428;2022-11-06T00:49:43;26.90;;;8.60;;
4434;SDS011;46552;52.150;8.428;2022-11-06T00:52:10;16.97;;;8.50;;
4434;SDS011;46552;52.150;8.428;2022-11-06T00:54:37;13.33;;;7.20;;
4434;SDS011;46552;52.150;8.428;2022-11-06T00:57:04;19.93;;;8.07;;
4434;SDS011;46552;52.150;8.428;2022-11-06T00:59:33;12.63;;;7.80;;
4434;SDS011;46552;52.150;8.428;2022-11-06T01:02:01;16.20;;;6.93;;
4434;SDS011;46552;52.150;8.428;2022-11-06T01:04:28;14.40;;;7.17;;
4434;SDS011;46552;52.150;8.428;2022-11-06T01:06:55;15.73;;;7.53;;
4434;SDS011;46552;52.150;8.428;2022-11-06T01:09:25;14.10;;;7.17;;
4434;SDS011;46552;52.150;8.428;2022-11-06T01:11:53;14.43;;;8.23;;
4434;SDS011;46552;52.150;8.428;2022-11-06T01:14:22;16.00;;;8.27;;
4434;SDS011;46552;52.150;8.428;2022-11-06T01:16:52;14.60;;;6.80;;
4434;SDS011;46552;52.150;8.428;2022-11-06T01:19:20;15.93;;;8.20;;
4434;SDS011;46552;52.150;8.428;2022-11-06T01:21:48;17.77;;;7.90;;
4434;SDS011;46552;52.150;8.428;2022-11-06T01:24:19;15.73;;;7.73;;
4434;SDS011;46552;52.150;8.428;2022-11-06T01:26:48;26.93;;;9.63;;
4434;SDS011;46552;52.150;8.428;2022-11-06T01:29:17;15.17;;;7.40;;
4434;SDS011;46552;52.150;8.428;2022-11-06T01:31:46;16.43;;;6.67;;
4434;SDS011;46552;52.150;8.428;2022-11-06T01:34:16;17.60;;;7.87;;
4434;SDS011;46552;52.150;8.428;2022-11-06T01:36:44;19.90;;;7.60;;
4434;SDS011;46552;52.150;8.428;2022-11-06T01:39:12;20.73;;;7.93;;
4434;SDS011;46552;52.150;8.428;2022-11-06T01:41:40;27.73;;;7.17;;
4434;SDS011;46552;52.150;8.428;2022-11-06T01:47:17;15.50;;;7.93;;
4434;SDS011;46552;52.150;8.428;2022-11-06T01:49:49;15.50;;;6.90;;
4434;SDS011;46552;52.150;8.428;2022-11-06T01:52:19;15.17;;;6.83;;
4434;SDS011;46552;52.150;8.428;2022-11-06T01:54:49;14.77;;;7.90;;
4434;SDS011;46552;52.150;8.428;2022-11-06T01:57:19;19.10;;;7.47;;
4434;SDS011;46552;52.150;8.428;2022-11-06T01:59:47;14.37;;;6.60;;
4434;SDS011;46552;52.150;8.428;2022-11-06T02:02:17;13.80;;;6.90;;
4434;SDS011;46552;52.150;8.428;2022-11-06T02:04:46;14.67;;;6.27;;
4434;SDS011;46552;52.150;8.428;2022-11-06T02:07:15;16.17;;;6.70;;
4434;SDS011;46552;52.150;8.428;2022-11-06T02:09:44;21.63;;;6.90;;
4434;SDS011;46552;52.150;8.428;2022-11-06T02:12:17;14.57;;;6.20;;
4434;SDS011;46552;52.150;8.428;2022-11-06T02:14:55;16.13;;;6.70;;
4434;SDS011;46552;52.150;8.428;2022-11-06T02:17:28;16.97;;;7.53;;
4434;SDS011;46552;52.150;8.428;2022-11-06T02:20:09;10.00;;;5.97;;
4434;SDS011;46552;52.150;8.428;2022-11-06T02:25:47;14.03;;;6.57;;
4434;SDS011;46552;52.150;8.428;2022-11-06T02:28:23;18.13;;;7.00;;
4434;SDS011;46552;52.150;8.428;2022-11-06T02:30:57;10.97;;;5.90;;
4434;SDS011;46552;52.150;8.428;2022-11-06T02:33:29;15.97;;;7.20;;
4434;SDS011;46552;52.150;8.428;2022-11-06T02:36:00;10.00;;;6.00;;
4434;SDS011;46552;52.150;8.428;2022-11-06T02:38:32;10.83;;;6.70;;
4434;SDS011;46552;52.150;8.428;2022-11-06T02:41:03;9.73;;;6.53;;
4434;SDS011;46552;52.150;8.428;2022-11-06T02:43:36;14.00;;;6.30;;
4434;SDS011;46552;52.150;8.428;2022-11-06T02:46:08;16.90;;;6.40;;
4434;SDS011;46552;52.150;8.428;2022-11-06T02:48:39;10.23;;;6.33;;
4434;SDS011;46552;52.150;8.428;2022-11-06T02:51:11;14.63;;;5.73;;
4434;SDS011;46552;52.150;8.428;2022-11-06T02:53:41;20.00;;;6.03;;
4434;SDS011;46552;52.150;8.428;2022-11-06T02:56:12;14.20;;;5.30;;
4434;SDS011;46552;52.150;8.428;2022-11-06T02:58:46;11.90;;;7.70;;
4434;SDS011;46552;52.150;8.428;2022-11-06T03:01:19;15.40;;;5.83;;
4434;SDS011;46552;52.150;8.428;2022-11-06T03:03:54;8.83;;;5.60;;
4434;SDS011;46552;52.150;8.428;2022-11-06T03:06:31;12.60;;;6.30;;
4434;SDS011;46552;52.150;8.428;2022-11-06T03:09:03;18.50;;;6.93;;
4434;SDS011;46552;52.150;8.428;2022-11-06T03:11:35;10.00;;;5.37;;
4434;SDS011;46552;52.150;8.428;2022-11-06T03:14:07;13.40;;;4.93;;
4434;SDS011;46552;52.150;8.428;2022-11-06T03:16:42;10.57;;;5.10;;
4434;SDS011;46552;52.150;8.428;2022-11-06T03:19:19;15.67;;;6.40;;
4434;SDS011;46552;52.150;8.428;2022-11-06T03:21:55;10.10;;;4.60;;
4434;SDS011;46552;52.150;8.428;2022-11-06T03:24:26;13.53;;;5.70;;
4434;SDS011;46552;52.150;8.428;2022-11-06T03:27:01;10.00;;;5.17;;
4434;SDS011;46552;52.150;8.428;2022-11-06T03:29:35;14.60;;;5.67;;
4434;SDS011;46552;52.150;8.428;2022-11-06T03:32:08;13.23;;;6.53;;
4434;SDS011;46552;52.150;8.428;2022-11-06T03:34:42;11.50;;;5.40;;
4434;SDS011;46552;52.150;8.428;2022-11-06T03:37:15;10.80;;;5.93;;
4434;SDS011;46552;52.150;8.428;2022-11-06T03:39:47;10.43;;;5.70;;
4434;SDS011;46552;52.150;8.428;2022-11-06T03:42:18;9.77;;;4.90;;
4434;SDS011;46552;52.150;8.428;2022-11-06T03:44:52;21.17;;;5.17;;
4434;SDS011;46552;52.150;8.428;2022-11-06T03:47:23;14.60;;;4.57;;
4434;SDS011;46552;52.150;8.428;2022-11-06T03:49:55;7.67;;;4.50;;
4434;SDS011;46552;52.150;8.428;2022-11-06T03:52:28;12.27;;;5.47;;
4434;SDS011;46552;52.150;8.428;2022-11-06T03:55:00;14.63;;;5.37;;
4434;SDS011;46552;52.150;8.428;2022-11-06T03:57:32;10.60;;;5.40;;
4434;SDS011;46552;52.150;8.428;2022-11-06T04:00:09;11.20;;;5.37;;
4434;SDS011;46552;52.150;8.428;2022-11-06T04:02:38;12.20;;;5.17;;
4434;SDS011;46552;52.150;8.428;2022-11-06T04:05:09;11.40;;;4.97;;
4434;SDS011;46552;52.150;8.428;2022-11-06T04:07:42;13.13;;;6.30;;
4434;SDS011;46552;52.150;8.428;2022-11-06T04:10:32;10.73;;;4.80;;
4434;SDS011;46552;52.150;8.428;2022-11-06T04:13:18;13.10;;;4.50;;
4434;SDS011;46552;52.150;8.428;2022-11-06T04:16:07;11.03;;;4.33;;
4434;SDS011;46552;52.150;8.428;2022-11-06T04:18:36;11.87;;;4.47;;
4434;SDS011;46552;52.150;8.428;2022-11-06T04:21:08;12.00;;;4.87;;
4434;SDS011;46552;52.150;8.428;2022-11-06T04:23:53;13.63;;;4.40;;
4434;SDS011;46552;52.150;8.428;2022-11-06T04:26:51;7.70;;;4.40;;
4434;SDS011;46552;52.150;8.428;2022-11-06T04:29:34;12.97;;;4.53;;
4434;SDS011;46552;52.150;8.428;2022-11-06T04:32:16;7.17;;;4.47;;
4434;SDS011;46552;52.150;8.428;2022-11-06T04:34:51;9.80;;;4.30;;
4434;SDS011;46552;52.150;8.428;2022-11-06T04:37:27;13.80;;;4.60;;
4434;SDS011;46552;52.150;8.428;2022-11-06T04:40:01;18.23;;;4.00;;
4434;SDS011;46552;52.150;8.428;2022-11-06T04:42:38;13.70;;;4.47;;
4434;SDS011;46552;52.150;8.428;2022-11-06T04:45:12;8.10;;;3.33;;
4434;SDS011;46552;52.150;8.428;2022-11-06T04:47:48;9.53;;;4.10;;
4434;SDS011;46552;52.150;8.428;2022-11-06T04:50:16;10.30;;;4.37;;
4434;SDS011;46552;52.150;8.428;2022-11-06T04:52:46;10.83;;;4.63;;
4434;SDS011;46552;52.150;8.428;2022-11-06T04:55:14;11.73;;;3.80;;
4434;SDS011;46552;52.150;8.428;2022-11-06T04:57:42;7.20;;;3.73;;
4434;SDS011;46552;52.150;8.428;2022-11-06T05:00:10;13.10;;;5.33;;
4434;SDS011;46552;52.150;8.428;2022-11-06T05:02:39;14.57;;;4.97;;
4434;SDS011;46552;52.150;8.428;2022-11-06T05:05:07;8.47;;;4.30;;
4434;SDS011;46552;52.150;8.428;2022-11-06T05:07:35;14.33;;;4.20;;
4434;SDS011;46552;52.150;8.428;2022-11-06T05:10:02;12.63;;;3.93;;
4434;SDS011;46552;52.150;8.428;2022-11-06T05:12:30;9.00;;;3.30;;
4434;SDS011;46552;52.150;8.428;2022-11-06T05:14:58;15.37;;;4.40;;
4434;SDS011;46552;52.150;8.428;2022-11-06T05:17:25;8.00;;;3.70;;
4434;SDS011;46552;52.150;8.428;2022-11-06T05:19:53;14.13;;;3.63;;
4434;SDS011;46552;52.150;8.428;2022-11-06T05:22:21;12.50;;;4.23;;
4434;SDS011;46552;52.150;8.428;2022-11-06T05:25:06;10.07;;;3.83;;
4434;SDS011;46552;52.150;8.428;2022-11-06T05:27:33;16.63;;;4.63;;
4434;SDS011;46552;52.150;8.428;2022-11-06T05:30:01;9.87;;;4.20;;
4434;SDS011;46552;52.150;8.428;2022-11-06T05:32:28;13.87;;;3.33;;
4434;SDS011;46552;52.150;8.428;2022-11-06T05:34:56;7.13;;;3.60;;
4434;SDS011;46552;52.150;8.428;2022-11-06T05:37:25;9.07;;;3.50;;
4434;SDS011;46552;52.150;8.428;2022-11-06T05:39:53;8.77;;;3.93;;
4434;SDS011;46552;52.150;8.428;2022-11-06T05:42:20;8.70;;;3.50;;
4434;SDS011;46552;52.150;8.428;2022-11-06T05:44:47;12.97;;;3.80;;
4434;SDS011;46552;52.150;8.428;2022-11-06T05:47:15;8.10;;;3.60;;
4434;SDS011;46552;52.150;8.428;2022-11-06T05:49:42;6.30;;;3.70;;
4434;SDS011;46552;52.150;8.428;2022-11-06T05:52:09;7.53;;;3.73;;
4434;SDS011;46552;52.150;8.428;2022-11-06T05:54:38;13.70;;;4.37;;
4434;SDS011;46552;52.150;8.428;2022-11-06T05:57:05;13.77;;;5.13;;
4434;SDS011;46552;52.150;8.428;2022-11-06T05:59:32;14.57;;;4.23;;
4434;SDS011;46552;52.150;8.428;2022-11-06T06:01:59;8.43;;;3.50;;
4434;SDS011;46552;52.150;8.428;2022-11-06T06:04:26;7.70;;;3.60;;
4434;SDS011;46552;52.150;8.428;2022-11-06T06:06:54;10.93;;;3.70;;
4434;SDS011;46552;52.150;8.428;2022-11-06T06:09:21;9.10;;;3.57;;
4434;SDS011;46552;52.150;8.428;2022-11-06T06:11:50;9.60;;;4.20;;
4434;SDS011;46552;52.150;8.428;2022-11-06T06:14:19;5.93;;;3.00;;
4434;SDS011;46552;52.150;8.428;2022-11-06T06:16:46;8.33;;;3.67;;
4434;SDS011;46552;52.150;8.428;2022-11-06T06:19:13;9.37;;;3.60;;
4434;SDS011;46552;52.150;8.428;2022-11-06T06:21:40;13.93;;;4.43;;
4434;SDS011;46552;52.150;8.428;2022-11-06T06:24:08;9.57;;;3.70;;
4434;SDS011;46552;52.150;8.428;2022-11-06T06:26:35;14.40;;;3.57;;
4434;SDS011;46552;52.150;8.428;2022-11-06T06:29:05;9.03;;;4.27;;
4434;SDS011;46552;52.150;8.428;2022-11-06T06:31:32;13.87;;;4.10;;
4434;SDS011;46552;52.150;8.428;2022-11-06T06:33:59;10.07;;;3.33;;
4434;SDS011;46552;52.150;8.428;2022-11-06T06:36:26;8.53;;;3.67;;
4434;SDS011;46552;52.150;8.428;2022-11-06T06:38:54;9.07;;;3.93;;
4434;SDS011;46552;52.150;8.428;2022-11-06T06:41:21;12.80;;;3.33;;
4434;SDS011;46552;52.150;8.428;2022-11-06T06:43:48;12.47;;;2.80;;
4434;SDS011;46552;52.150;8.428;2022-11-06T06:46:18;12.83;;;3.40;;
4434;SDS011;46552;52.150;8.428;2022-11-06T06:48:46;8.67;;;3.60;;
4434;SDS011;46552;52.150;8.428;2022-11-06T06:51:13;15.03;;;3.80;;
4434;SDS011;46552;52.150;8.428;2022-11-06T06:53:40;12.60;;;3.50;;
4434;SDS011;46552;52.150;8.428;2022-11-06T06:56:08;8.47;;;3.43;;
4434;SDS011;46552;52.150;8.428;2022-11-06T06:58:35;10.20;;;3.70;;
4434;SDS011;46552;52.150;8.428;2022-11-06T07:01:04;5.50;;;3.00;;
4434;SDS011;46552;52.150;8.428;2022-11-06T07:03:36;7.97;;;3.00;;
4434;SDS011;46552;52.150;8.428;2022-11-06T07:06:04;9.60;;;3.10;;
4434;SDS011;46552;52.150;8.428;2022-11-06T07:08:31;6.60;;;3.33;;
4434;SDS011;46552;52.150;8.428;2022-11-06T07:10:59;11.73;;;4.20;;
4434;SDS011;46552;52.150;8.428;2022-11-06T07:13:26;9.03;;;3.37;;
4434;SDS011;46552;52.150;8.428;2022-11-06T07:15:54;6.27;;;3.80;;
4434;SDS011;46552;52.150;8.428;2022-11-06T07:18:21;7.77;;;3.33;;
4434;SDS011;46552;52.150;8.428;2022-11-06T07:20:50;12.00;;;3.30;;
4434;SDS011;46552;52.150;8.428;2022-11-06T07:23:18;15.13;;;3.90;;
4434;SDS011;46552;52.150;8.428;2022-11-06T07:25:50;21.00;;;3.43;;
4434;SDS011;46552;52.150;8.428;2022-11-06T07:28:18;11.23;;;3.90;;
4434;SDS011;46552;52.150;8.428;2022-11-06T07:30:46;9.20;;;3.17;;
4434;SDS011;46552;52.150;8.428;2022-11-06T07:33:13;8.43;;;3.83;;
4434;SDS011;46552;52.150;8.428;2022-11-06T07:35:40;6.87;;;3.20;;
4434;SDS011;46552;52.150;8.428;2022-11-06T07:38:08;8.13;;;3.40;;
4434;SDS011;46552;52.150;8.428;2022-11-06T07:40:35;7.50;;;2.97;;
4434;SDS011;46552;52.150;8.428;2022-11-06T07:43:03;9.10;;;4.40;;
4434;SDS011;46552;52.150;8.428;2022-11-06T07:45:31;9.50;;;3.20;;
4434;SDS011;46552;52.150;8.428;2022-11-06T07:47:59;9.50;;;3.27;;
4434;SDS011;46552;52.150;8.428;2022-11-06T07:50:26;11.87;;;3.50;;
4434;SDS011;46552;52.150;8.428;2022-11-06T07:52:54;10.10;;;3.60;;
4434;SDS011;46552;52.150;8.428;2022-11-06T07:55:25;7.10;;;3.20;;
4434;SDS011;46552;52.150;8.428;2022-11-06T07:57:52;11.67;;;3.23;;
4434;SDS011;46552;52.150;8.428;2022-11-06T08:00:19;10.70;;;3.40;;
4434;SDS011;46552;52.150;8.428;2022-11-06T08:02:49;5.73;;;2.50;;
4434;SDS011;46552;52.150;8.428;2022-11-06T08:05:18;8.00;;;3.50;;
4434;SDS011;46552;52.150;8.428;2022-11-06T08:07:45;9.03;;;3.00;;
4434;SDS011;46552;52.150;8.428;2022-11-06T08:10:12;6.97;;;2.90;;
4434;SDS011;46552;52.150;8.428;2022-11-06T08:12:41;13.63;;;3.40;;
4434;SDS011;46552;52.150;8.428;2022-11-06T08:15:09;10.83;;;2.87;;
4434;SDS011;46552;52.150;8.428;2022-11-06T08:17:36;10.70;;;2.77;;
4434;SDS011;46552;52.150;8.428;2022-11-06T08:20:04;9.80;;;3.33;;
4434;SDS011;46552;52.150;8.428;2022-11-06T08:22:32;5.93;;;2.27;;
4434;SDS011;46552;52.150;8.428;2022-11-06T08:24:59;9.50;;;2.60;;
4434;SDS011;46552;52.150;8.428;2022-11-06T08:27:27;8.57;;;3.17;;
4434;SDS011;46552;52.150;8.428;2022-11-06T08:29:55;11.37;;;5.13;;
4434;SDS011;46552;52.150;8.428;2022-11-06T08:32:23;8.20;;;2.90;;
4434;SDS011;46552;52.150;8.428;2022-11-06T08:34:50;5.80;;;2.37;;
4434;SDS011;46552;52.150;8.428;2022-11-06T08:37:17;9.57;;;3.00;;
4434;SDS011;46552;52.150;8.428;2022-11-06T08:39:45;7.13;;;2.70;;
4434;SDS011;46552;52.150;8.428;2022-11-06T08:42:12;6.77;;;2.83;;
4434;SDS011;46552;52.150;8.428;2022-11-06T08:44:40;9.20;;;4.10;;
4434;SDS011;46552;52.150;8.428;2022-11-06T08:47:08;10.63;;;4.90;;
4434;SDS011;46552;52.150;8.428;2022-11-06T08:49:36;12.17;;;3.90;;
4434;SDS011;46552;52.150;8.428;2022-11-06T08:52:03;12.00;;;2.90;;
4434;SDS011;46552;52.150;8.428;2022-11-06T08:54:32;7.23;;;3.23;;
4434;SDS011;46552;52.150;8.428;2022-11-06T08:57:00;8.80;;;3.40;;
4434;SDS011;46552;52.150;8.428;2022-11-06T08:59:28;6.70;;;2.30;;
4434;SDS011;46552;52.150;8.428;2022-11-06T09:01:56;6.93;;;1.80;;
4434;SDS011;46552;52.150;8.428;2022-11-06T09:04:26;7.10;;;2.67;;
4434;SDS011;46552;52.150;8.428;2022-11-06T09:06:55;6.77;;;2.37;;
4434;SDS011;46552;52.150;8.428;2022-11-06T09:09:23;6.10;;;2.27;;
4434;SDS011;46552;52.150;8.428;2022-11-06T09:11:56;8.70;;;2.00;;
4434;SDS011;46552;52.150;8.428;2022-11-06T09:14:24;8.67;;;2.27;;
4434;SDS011;46552;52.150;8.428;2022-11-06T09:16:52;4.87;;;2.43;;
4434;SDS011;46552;52.150;8.428;2022-11-06T09:19:20;6.77;;;1.70;;
4434;SDS011;46552;52.150;8.428;2022-11-06T09:21:49;5.00;;;1.80;;
4434;SDS011;46552;52.150;8.428;2022-11-06T09:24:16;4.80;;;1.80;;
4434;SDS011;46552;52.150;8.428;2022-11-06T09:26:43;3.50;;;1.40;;
4434;SDS011;46552;52.150;8.428;2022-11-06T09:29:10;4.67;;;1.97;;
4434;SDS011;46552;52.150;8.428;2022-11-06T09:31:37;7.20;;;1.80;;
4434;SDS011;46552;52.150;8.428;2022-11-06T09:34:07;3.30;;;2.00;;
4434;SDS011;46552;52.150;8.428;2022-11-06T09:36:34;9.53;;;2.17;;
4434;SDS011;46552;52.150;8.428;2022-11-06T09:39:04;5.20;;;2.20;;
4434;SDS011;46552;52.150;8.428;2022-11-06T09:41:33;6.30;;;1.90;;
4434;SDS011;46552;52.150;8.428;2022-11-06T09:44:12;7.60;;;2.60;;
4434;SDS011;46552;52.150;8.428;2022-11-06T09:46:47;4.37;;;1.77;;
4434;SDS011;46552;52.150;8.428;2022-11-06T09:49:17;4.20;;;1.80;;
4434;SDS011;46552;52.150;8.428;2022-11-06T09:51:51;5.27;;;1.87;;
4434;SDS011;46552;52.150;8.428;2022-11-06T09:54:24;4.47;;;1.80;;
4434;SDS011;46552;52.150;8.428;2022-11-06T09:56:54;3.57;;;1.70;;
4434;SDS011;46552;52.150;8.428;2022-11-06T09:59:28;16.30;;;2.53;;
4434;SDS011;46552;52.150;8.428;2022-11-06T10:01:58;5.43;;;2.47;;
4434;SDS011;46552;52.150;8.428;2022-11-06T10:04:29;5.23;;;1.97;;
4434;SDS011;46552;52.150;8.428;2022-11-06T10:07:07;5.77;;;2.10;;
4434;SDS011;46552;52.150;8.428;2022-11-06T10:09:46;4.57;;;2.10;;
4434;SDS011;46552;52.150;8.428;2022-11-06T10:12:15;4.53;;;1.83;;
4434;SDS011;46552;52.150;8.428;2022-11-06T10:14:52;5.50;;;1.90;;
4434;SDS011;46552;52.150;8.428;2022-11-06T10:17:30;8.73;;;2.63;;
4434;SDS011;46552;52.150;8.428;2022-11-06T10:20:08;6.17;;;1.83;;
4434;SDS011;46552;52.150;8.428;2022-11-06T10:22:44;7.47;;;2.00;;
4434;SDS011;46552;52.150;8.428;2022-11-06T10:25:23;9.73;;;2.73;;
4434;SDS011;46552;52.150;8.428;2022-11-06T10:28:01;7.97;;;2.30;;
4434;SDS011;46552;52.150;8.428;2022-11-06T10:30:36;8.00;;;2.20;;
4434;SDS011;46552;52.150;8.428;2022-11-06T10:33:19;6.07;;;2.63;;
4434;SDS011;46552;52.150;8.428;2022-11-06T10:35:56;11.30;;;2.30;;
4434;SDS011;46552;52.150;8.428;2022-11-06T10:38:32;6.03;;;1.93;;
4434;SDS011;46552;52.150;8.428;2022-11-06T10:41:02;6.00;;;2.10;;
4434;SDS011;46552;52.150;8.428;2022-11-06T10:43:31;6.97;;;2.73;;
4434;SDS011;46552;52.150;8.428;2022-11-06T10:46:03;6.13;;;2.13;;
4434;SDS011;46552;52.150;8.428;2022-11-06T10:48:45;6.83;;;1.67;;
4434;SDS011;46552;52.150;8.428;2022-11-06T10:51:20;10.43;;;2.57;;
4434;SDS011;46552;52.150;8.428;2022-11-06T10:54:05;7.60;;;2.27;;
4434;SDS011;46552;52.150;8.428;2022-11-06T10:56:48;6.27;;;2.10;;
4434;SDS011;46552;52.150;8.428;2022-11-06T10:59:27;12.07;;;2.03;;
4434;SDS011;46552;52.150;8.428;2022-11-06T11:01:54;4.00;;;2.20;;
4434;SDS011;46552;52.150;8.428;2022-11-06T11:04:23;6.10;;;2.27;;
4434;SDS011;46552;52.150;8.428;2022-11-06T11:06:50;15.33;;;2.70;;
4434;SDS011;46552;52.150;8.428;2022-11-06T11:09:27;6.10;;;2.10;;
4434;SDS011;46552;52.150;8.428;2022-11-06T11:11:57;7.53;;;2.17;;
4434;SDS011;46552;52.150;8.428;2022-11-06T11:14:25;6.63;;;2.40;;
4434;SDS011;46552;52.150;8.428;2022-11-06T11:16:54;5.27;;;2.13;;
4434;SDS011;46552;52.150;8.428;2022-11-06T11:19:27;7.43;;;2.37;;
4434;SDS011;46552;52.150;8.428;2022-11-06T11:22:00;4.47;;;2.03;;
4434;SDS011;46552;52.150;8.428;2022-11-06T11:24:30;5.33;;;2.10;;
4434;SDS011;46552;52.150;8.428;2022-11-06T11:26:59;4.30;;;2.47;;
4434;SDS011;46552;52.150;8.428;2022-11-06T11:29:30;4.37;;;2.27;;
4434;SDS011;46552;52.150;8.428;2022-11-06T11:32:00;6.20;;;2.20;;
4434;SDS011;46552;52.150;8.428;2022-11-06T11:34:31;11.63;;;2.37;;
4434;SDS011;46552;52.150;8.428;2022-11-06T11:37:01;5.70;;;2.33;;
4434;SDS011;46552;52.150;8.428;2022-11-06T11:39:30;6.70;;;1.97;;
4434;SDS011;46552;52.150;8.428;2022-11-06T11:45:11;11.00;;;3.90;;
4434;SDS011;46552;52.150;8.428;2022-11-06T11:47:41;8.67;;;2.87;;
4434;SDS011;46552;52.150;8.428;2022-11-06T11:50:17;8.43;;;2.07;;
4434;SDS011;46552;52.150;8.428;2022-11-06T11:52:54;7.70;;;2.20;;
4434;SDS011;46552;52.150;8.428;2022-11-06T11:55:25;13.73;;;2.93;;
4434;SDS011;46552;52.150;8.428;2022-11-06T11:57:56;9.93;;;2.73;;
4434;SDS011;46552;52.150;8.428;2022-11-06T12:00:25;7.67;;;2.10;;
4434;SDS011;46552;52.150;8.428;2022-11-06T12:02:54;6.40;;;2.37;;
4434;SDS011;46552;52.150;8.428;2022-11-06T12:05:26;4.43;;;2.30;;
4434;SDS011;46552;52.150;8.428;2022-11-06T12:07:58;7.40;;;2.53;;
4434;SDS011;46552;52.150;8.428;2022-11-06T12:10:27;7.93;;;2.13;;
4434;SDS011;46552;52.150;8.428;2022-11-06T12:12:59;5.40;;;1.87;;
4434;SDS011;46552;52.150;8.428;2022-11-06T12:15:31;7.70;;;2.37;;
4434;SDS011;46552;52.150;8.428;2022-11-06T12:18:08;7.90;;;2.10;;
4434;SDS011;46552;52.150;8.428;2022-11-06T12:20:39;5.23;;;1.90;;
4434;SDS011;46552;52.150;8.428;2022-11-06T12:23:12;9.80;;;2.40;;
4434;SDS011;46552;52.150;8.428;2022-11-06T12:25:43;5.53;;;1.87;;
4434;SDS011;46552;52.150;8.428;2022-11-06T12:28:19;3.50;;;1.57;;
4434;SDS011;46552;52.150;8.428;2022-11-06T12:30:56;7.77;;;2.10;;
4434;SDS011;46552;52.150;8.428;2022-11-06T12:33:28;4.93;;;1.90;;
4434;SDS011;46552;52.150;8.428;2022-11-06T12:35:58;4.83;;;2.00;;
4434;SDS011;46552;52.150;8.428;2022-11-06T12:38:31;5.50;;;2.03;;
4434;SDS011;46552;52.150;8.428;2022-11-06T12:41:09;6.40;;;2.67;;
4434;SDS011;46552;52.150;8.428;2022-11-06T12:43:41;6.07;;;2.50;;
4434;SDS011;46552;52.150;8.428;2022-11-06T12:46:19;5.13;;;1.70;;
4434;SDS011;46552;52.150;8.428;2022-11-06T12:49:11;3.90;;;1.73;;
4434;SDS011;46552;52.150;8.428;2022-11-06T12:52:07;7.73;;;1.60;;
4434;SDS011;46552;52.150;8.428;2022-11-06T12:54:48;10.37;;;1.60;;
4434;SDS011;46552;52.150;8.428;2022-11-06T12:57:28;4.57;;;1.77;;
4434;SDS011;46552;52.150;8.428;2022-11-06T13:00:08;3.37;;;1.50;;
4434;SDS011;46552;52.150;8.428;2022-11-06T13:02:43;5.20;;;2.10;;
4434;SDS011;46552;52.150;8.428;2022-11-06T13:05:39;9.00;;;2.17;;
4434;SDS011;46552;52.150;8.428;2022-11-06T13:08:14;6.60;;;1.80;;
4434;SDS011;46552;52.150;8.428;2022-11-06T13:10:55;6.20;;;2.27;;
4434;SDS011;46552;52.150;8.428;2022-11-06T13:13:35;9.00;;;2.33;;
4434;SDS011;46552;52.150;8.428;2022-11-06T13:16:26;6.23;;;3.17;;
4434;SDS011;46552;52.150;8.428;2022-11-06T13:19:03;10.10;;;3.30;;
4434;SDS011;46552;52.150;8.428;2022-11-06T13:21:49;6.73;;;2.53;;
4434;SDS011;46552;52.150;8.428;2022-11-06T13:24:24;9.17;;;3.70;;
4434;SDS011;46552;52.150;8.428;2022-11-06T13:27:00;9.10;;;3.57;;
4434;SDS011;46552;52.150;8.428;2022-11-06T13:29:33;8.10;;;3.23;;
4434;SDS011;46552;52.150;8.428;2022-11-06T13:32:04;10.73;;;4.17;;
4434;SDS011;46552;52.150;8.428;2022-11-06T13:34:38;10.30;;;4.40;;
4434;SDS011;46552;52.150;8.428;2022-11-06T13:37:11;8.10;;;3.30;;
4434;SDS011;46552;52.150;8.428;2022-11-06T13:39:41;10.90;;;3.57;;
4434;SDS011;46552;52.150;8.428;2022-11-06T13:42:17;8.10;;;3.73;;
4434;SDS011;46552;52.150;8.428;2022-11-06T13:44:47;8.27;;;3.33;;
4434;SDS011;46552;52.150;8.428;2022-11-06T13:47:17;8.70;;;3.47;;
4434;SDS011;46552;52.150;8.428;2022-11-06T13:49:54;10.20;;;4.17;;
4434;SDS011;46552;52.150;8.428;2022-11-06T13:52:29;14.40;;;6.20;;
4434;SDS011;46552;52.150;8.428;2022-11-06T13:55:06;10.83;;;4.90;;
4434;SDS011;46552;52.150;8.428;2022-11-06T14:00:51;8.43;;;4.17;;
4434;SDS011;46552;52.150;8.428;2022-11-06T14:06:24;15.60;;;5.30;;
4434;SDS011;46552;52.150;8.428;2022-11-06T14:08:53;9.40;;;5.30;;
4434;SDS011;46552;52.150;8.428;2022-11-06T14:11:24;9.27;;;4.80;;
4434;SDS011;46552;52.150;8.428;2022-11-06T14:13:55;12.93;;;5.10;;
4434;SDS011;46552;52.150;8.428;2022-11-06T14:16:26;19.67;;;9.17;;
4434;SDS011;46552;52.150;8.428;2022-11-06T14:18:59;14.17;;;7.87;;
4434;SDS011;46552;52.150;8.428;2022-11-06T14:27:08;10.03;;;4.57;;
4434;SDS011;46552;52.150;8.428;2022-11-06T14:32:42;12.67;;;5.37;;
4434;SDS011;46552;52.150;8.428;2022-11-06T14:35:39;8.50;;;4.80;;
4434;SDS011;46552;52.150;8.428;2022-11-06T14:44:04;12.03;;;5.70;;
4434;SDS011;46552;52.150;8.428;2022-11-06T14:46:47;11.77;;;4.40;;
4434;SDS011;46552;52.150;8.428;2022-11-06T14:49:18;7.93;;;4.00;;
4434;SDS011;46552;52.150;8.428;2022-11-06T14:51:58;18.27;;;4.07;;
4434;SDS011;46552;52.150;8.428;2022-11-06T14:54:28;9.73;;;4.40;;
4434;SDS011;46552;52.150;8.428;2022-11-06T14:56:56;7.97;;;4.20;;
4434;SDS011;46552;52.150;8.428;2022-11-06T14:59:28;8.60;;;3.40;;
4434;SDS011;46552;52.150;8.428;2022-11-06T15:01:59;11.30;;;4.40;;
4434;SDS011;46552;52.150;8.428;2022-11-06T15:04:33;9.87;;;3.97;;
4434;SDS011;46552;52.150;8.428;2022-11-06T15:07:26;13.63;;;3.73;;
4434;SDS011;46552;52.150;8.428;2022-11-06T15:13:25;10.37;;;3.50;;
4434;SDS011;46552;52.150;8.428;2022-11-06T15:15:56;8.40;;;3.70;;
4434;SDS011;46552;52.150;8.428;2022-11-06T15:18:28;9.70;;;2.93;;
4434;SDS011;46552;52.150;8.428;2022-11-06T15:20:59;9.43;;;4.30;;
4434;SDS011;46552;52.150;8.428;2022-11-06T15:23:31;5.03;;;3.40;;
4434;SDS011;46552;52.150;8.428;2022-11-06T15:26:07;11.47;;;3.93;;
4434;SDS011;46552;52.150;8.428;2022-11-06T15:28:45;10.47;;;3.37;;
4434;SDS011;46552;52.150;8.428;2022-11-06T15:31:18;8.07;;;4.10;;
4434;SDS011;46552;52.150;8.428;2022-11-06T15:33:50;9.50;;;4.00;;
4434;SDS011;46552;52.150;8.428;2022-11-06T15:36:23;6.20;;;3.10;;
4434;SDS011;46552;52.150;8.428;2022-11-06T15:38:56;7.07;;;3.60;;
4434;SDS011;46552;52.150;8.428;2022-11-06T15:41:24;12.00;;;4.47;;
4434;SDS011;46552;52.150;8.428;2022-11-06T15:43:52;15.40;;;3.90;;
4434;SDS011;46552;52.150;8.428;2022-11-06T15:46:22;12.23;;;4.23;;
4434;SDS011;46552;52.150;8.428;2022-11-06T15:49:06;8.00;;;3.73;;
4434;SDS011;46552;52.150;8.428;2022-11-06T15:51:48;6.60;;;3.83;;
4434;SDS011;46552;52.150;8.428;2022-11-06T15:54:29;8.90;;;3.00;;